Time;durP1;ratioP1;P1;durP2;ratioP2;P2;SDS_P1;SDS_P2;PMS_P1;PMS_P2;Temp;Humidity;BMP_temperature;BMP_pressure;BME280_temperature;BME280_humidity;BME280_pressure;Samples;Min_cycle;Max_cycle;Signal;HPM_P1;HPM_P2
2022/11/03 02:48:49;;;;;;;6.60;3.30;;;;;;;9.80;70.74;96951.31;6217429;22;20024;-82
2022/11/03 02:51:16;;;;;;;5.15;2.97;;;;;;;9.82;70.57;96951.97;6215073;23;20264;-81
2022/11/03 02:53:53;;;;;;;5.90;3.20;;;;;;;9.83;70.82;96948.34;6215121;23;20021;-82
2022/11/03 02:56:24;;;;;;;7.97;3.20;;;;;;;9.83;70.88;96950.97;6215046;23;20352;-82
2022/11/03 02:58:57;;;;;;;9.93;4.35;;;;;;;9.83;70.95;96940.53;6214791;23;20457;-81
2022/11/03 03:01:33;;;;;;;11.80;3.47;;;;;;;9.84;70.82;96943.00;6215096;23;20396;-82
2022/11/03 03:04:06;;;;;;;5.72;3.10;;;;;;;9.84;71.00;96940.38;6215286;23;20033;-82
2022/11/03 03:06:39;;;;;;;7.45;3.00;;;;;;;9.85;70.92;96933.38;6214680;23;20020;-82
2022/11/03 03:09:11;;;;;;;6.43;3.40;;;;;;;9.82;70.84;96926.72;6214464;23;20024;-82
2022/11/03 03:11:43;;;;;;;6.07;3.67;;;;;;;9.82;70.94;96925.91;6214852;23;20027;-82
2022/11/03 03:14:13;;;;;;;9.38;3.58;;;;;;;9.82;70.84;96924.09;6215041;23;20095;-81
2022/11/03 03:16:52;;;;;;;8.32;3.90;;;;;;;9.82;70.99;96918.91;6214630;23;20107;-82
2022/11/03 03:19:33;;;;;;;6.70;3.30;;;;;;;9.83;71.29;96919.69;6214996;23;20099;-82
2022/11/03 03:22:08;;;;;;;4.82;3.25;;;;;;;9.83;71.14;96919.69;6214696;23;20040;-82
2022/11/03 03:24:40;;;;;;;7.32;2.97;;;;;;;9.83;70.99;96925.72;6214740;23;20099;-82
2022/11/03 03:27:12;;;;;;;7.45;3.47;;;;;;;9.84;70.99;96921.34;6214487;23;20012;-82
2022/11/03 03:29:46;;;;;;;8.35;3.28;;;;;;;9.85;71.10;96917.75;6214934;23;20119;-82
2022/11/03 03:32:19;;;;;;;7.70;3.22;;;;;;;9.88;71.13;96917.38;6216601;23;20344;-82
2022/11/03 03:34:51;;;;;;;6.40;3.65;;;;;;;9.92;70.87;96920.47;6216565;23;20103;-81
2022/11/03 03:37:20;;;;;;;6.15;3.50;;;;;;;9.92;70.78;96915.25;6216213;23;20329;-82
2022/11/03 03:39:51;;;;;;;8.15;4.00;;;;;;;9.94;70.92;96911.50;6216299;23;20043;-82
2022/11/03 03:42:21;;;;;;;7.27;3.07;;;;;;;9.94;71.16;96910.69;6216885;23;20100;-82
2022/11/03 03:44:50;;;;;;;8.38;3.70;;;;;;;9.94;70.83;96905.50;6216958;23;20507;-81
2022/11/03 03:47:23;;;;;;;6.88;3.95;;;;;;;9.95;71.06;96900.13;6216450;23;20020;-82
2022/11/03 03:49:52;;;;;;;9.80;3.47;;;;;;;9.95;70.94;96897.50;6217100;23;20171;-82
2022/11/03 03:52:20;;;;;;;8.52;3.67;;;;;;;9.96;70.85;96893.91;6218409;23;20020;-82
2022/11/03 03:54:48;;;;;;;10.27;4.00;;;;;;;9.95;70.88;96886.25;6218979;23;20396;-82
2022/11/03 03:57:17;;;;;;;6.90;4.10;;;;;;;9.95;70.64;96881.03;6216424;23;20092;-81
2022/11/03 03:59:45;;;;;;;7.53;3.63;;;;;;;9.94;70.72;96879.44;6216087;23;20108;-82
2022/11/03 04:02:13;;;;;;;7.20;3.78;;;;;;;9.93;70.65;96883.00;6216784;23;20020;-82
2022/11/03 04:04:41;;;;;;;8.68;3.40;;;;;;;9.93;70.85;96873.41;6216776;23;20096;-81
2022/11/03 04:09:56;;;;;;;11.27;4.05;;;;;;;9.96;70.77;96864.44;6215816;23;20017;-82
2022/11/03 04:23:28;;;;;;;7.38;4.53;;;;;;;9.96;71.02;96840.97;6216288;23;20346;-82
2022/11/03 04:25:57;;;;;;;8.85;4.20;;;;;;;9.95;70.92;96836.75;6215907;23;20024;-82
2022/11/03 04:28:26;;;;;;;6.03;4.18;;;;;;;9.95;71.25;96832.34;6215992;23;20028;-82
2022/11/03 04:30:56;;;;;;;10.85;4.80;;;;;;;9.95;71.26;96839.34;6216035;23;20071;-81
2022/11/03 04:33:26;;;;;;;10.85;4.05;;;;;;;9.93;71.15;96834.31;6216253;23;20024;-82
2022/11/03 04:35:57;;;;;;;6.13;3.70;;;;;;;9.94;71.20;96828.13;6216006;23;20016;-82
2022/11/03 04:38:27;;;;;;;7.50;3.90;;;;;;;9.95;71.06;96826.31;6215586;23;20469;-82
2022/11/03 04:40:58;;;;;;;8.07;4.90;;;;;;;9.97;71.21;96829.56;6216339;23;20048;-81
2022/11/03 04:43:33;;;;;;;8.10;4.07;;;;;;;9.95;71.17;96813.28;6215824;23;20103;-81
2022/11/03 04:46:01;;;;;;;8.70;5.03;;;;;;;9.95;71.05;96813.28;6215874;23;20046;-82
2022/11/03 04:48:29;;;;;;;8.55;5.20;;;;;;;9.93;71.31;96807.44;6215832;23;20048;-81
2022/11/03 04:51:00;;;;;;;12.93;5.65;;;;;;;9.92;71.10;96805.81;6215118;23;20021;-81
2022/11/03 04:53:32;;;;;;;9.15;5.45;;;;;;;9.92;71.22;96798.00;6215797;23;20028;-82
2022/11/03 04:56:01;;;;;;;9.23;5.28;;;;;;;9.91;71.21;96792.00;6215428;23;20025;-81
2022/11/03 04:58:35;;;;;;;7.07;4.68;;;;;;;9.91;71.17;96792.00;6215649;23;20028;-81
2022/11/03 05:01:04;;;;;;;10.95;5.28;;;;;;;9.90;71.14;96777.31;6217140;23;20084;-82
2022/11/03 05:03:34;;;;;;;8.95;5.50;;;;;;;9.87;71.20;96775.88;6215691;23;20329;-81
2022/11/03 05:06:11;;;;;;;11.15;6.45;;;;;;;9.86;71.43;96769.06;6215849;23;20024;-81
2022/11/03 05:08:40;;;;;;;9.77;6.32;;;;;;;9.84;71.17;96765.00;6215721;23;20024;-82
2022/11/03 05:11:20;;;;;;;11.70;6.65;;;;;;;9.82;71.54;96759.97;6215327;23;20034;-81
2022/11/03 05:13:49;;;;;;;10.57;6.80;;;;;;;9.80;71.35;96751.50;6215911;23;20032;-82
2022/11/03 05:16:17;;;;;;;15.27;7.90;;;;;;;9.78;71.40;96756.09;6215701;23;20404;-82
2022/11/03 05:18:48;;;;;;;13.38;8.68;;;;;;;9.77;71.62;96751.03;6215307;23;20035;-82
2022/11/03 05:21:19;;;;;;;12.82;7.85;;;;;;;9.76;71.57;96749.44;6215746;23;20023;-82
2022/11/03 05:23:50;;;;;;;16.27;8.85;;;;;;;9.76;71.52;96742.41;6215788;23;20016;-80
2022/11/03 05:26:22;;;;;;;11.88;7.47;;;;;;;9.73;71.67;96742.78;6215757;23;20043;-81
2022/11/03 05:28:53;;;;;;;11.25;7.88;;;;;;;9.71;71.42;96742.13;6224275;23;20012;-81
2022/11/03 05:31:29;;;;;;;13.98;7.70;;;;;;;9.68;71.49;96740.66;6225861;23;20016;-82
2022/11/03 05:34:28;;;;;;;19.25;9.35;;;;;;;9.65;71.53;96735.00;6217734;23;20399;-82
2022/11/03 05:36:56;;;;;;;12.30;8.85;;;;;;;9.61;71.52;96736.31;6219298;23;20067;-81
2022/11/03 05:39:29;;;;;;;13.75;8.75;;;;;;;9.58;71.72;96734.06;6214201;23;20020;-81
2022/11/03 05:41:59;;;;;;;13.70;8.93;;;;;;;9.56;71.37;96736.03;6212684;23;20024;-81
2022/11/03 05:44:32;;;;;;;14.40;9.23;;;;;;;9.54;71.72;96722.38;6212123;23;20067;-81
2022/11/03 05:47:00;;;;;;;;;;;;;;;9.56;71.81;96720.41;6213392;23;20031;-81
2022/11/03 05:49:33;;;;;;;14.10;9.70;;;;;;;9.53;71.41;96721.53;6212691;23;19990;-81
2022/11/03 05:52:01;;;;;;;16.08;9.77;;;;;;;9.51;71.53;96722.69;6212820;23;20017;-81
2022/11/03 05:54:33;;;;;;;14.73;9.52;;;;;;;9.47;71.86;96723.06;6213186;23;20028;-81
2022/11/03 05:57:08;;;;;;;12.95;8.60;;;;;;;9.46;71.86;96716.22;6215317;23;20025;-81
2022/11/03 05:59:36;;;;;;;15.63;9.00;;;;;;;9.47;71.97;96724.84;6214742;23;20020;-81
2022/11/03 06:02:28;;;;;;;14.43;9.82;;;;;;;9.46;72.25;96718.81;6215021;23;20016;-81
2022/11/03 06:04:56;;;;;;;15.48;8.85;;;;;;;9.46;71.97;96731.03;6214755;23;20021;-81
2022/11/03 06:07:26;;;;;;;16.85;10.00;;;;;;;9.44;71.93;96722.56;6214313;23;20027;-81
2022/11/03 06:09:54;;;;;;;14.43;8.48;;;;;;;9.44;71.97;96715.56;6214510;23;20021;-81
2022/11/03 06:12:24;;;;;;;14.73;9.25;;;;;;;9.45;71.92;96719.00;6214895;23;20024;-81
2022/11/03 06:14:52;;;;;;;11.38;8.70;;;;;;;9.42;71.90;96709.75;6215328;23;20026;-81
2022/11/03 06:17:23;;;;;;;16.85;9.00;;;;;;;9.42;71.72;96707.16;6214773;23;20023;-81
2022/11/03 06:19:53;;;;;;;13.73;9.82;;;;;;;9.41;71.77;96713.31;6214562;23;20024;-81
2022/11/03 06:22:24;;;;;;;14.57;9.65;;;;;;;9.39;71.89;96709.28;6214256;23;20013;-81
2022/11/03 06:24:55;;;;;;;14.50;9.38;;;;;;;9.36;71.73;96710.44;6214690;23;20032;-81
2022/11/03 06:27:25;;;;;;;17.13;9.57;;;;;;;9.35;71.78;96708.00;6214612;23;20028;-81
2022/11/03 06:29:58;;;;;;;14.43;10.15;;;;;;;9.32;71.71;96701.34;6214705;23;20024;-81
2022/11/03 06:32:27;;;;;;;15.05;8.70;;;;;;;9.31;71.54;96707.50;6214782;23;20426;-81
2022/11/03 06:34:57;;;;;;;12.13;9.00;;;;;;;9.32;71.55;96703.13;6215114;23;20031;-81
2022/11/03 06:37:27;;;;;;;12.98;9.30;;;;;;;9.34;71.47;96709.78;6214458;23;20025;-81
2022/11/03 06:39:59;;;;;;;15.73;9.63;;;;;;;9.36;71.66;96710.44;6214017;23;20457;-81
2022/11/03 06:42:32;;;;;;;14.98;9.85;;;;;;;9.38;71.86;96702.44;6214801;23;20392;-81
2022/11/03 06:45:02;;;;;;;15.48;10.10;;;;;;;9.37;71.72;96695.63;6215174;23;20024;-81
2022/11/03 06:47:31;;;;;;;14.77;9.18;;;;;;;9.39;71.67;96694.47;6215577;23;20024;-81
2022/11/03 06:50:00;;;;;;;15.95;9.50;;;;;;;9.41;71.79;96696.91;6215554;23;20025;-81
2022/11/03 06:52:31;;;;;;;11.43;8.15;;;;;;;9.43;72.01;96700.94;6217560;23;20028;-81
2022/11/03 06:55:20;;;;;;;18.05;9.65;;;;;;;9.47;71.96;96689.22;6216876;23;20023;-82
2022/11/03 06:57:53;;;;;;;14.48;9.27;;;;;;;9.49;71.80;96687.25;6215254;23;20029;-81
2022/11/03 07:00:22;;;;;;;;;;;;;;;9.57;71.90;96686.38;6215159;23;20025;-81
2022/11/03 07:03:10;;;;;;;16.67;10.10;;;;;;;9.62;71.58;96688.44;6214536;23;19962;-81
2022/11/03 07:05:39;;;;;;;14.70;10.32;;;;;;;9.66;71.30;96682.75;6215693;23;20027;-81
2022/11/03 07:08:19;;;;;;;13.90;8.98;;;;;;;9.68;71.22;96682.56;6215751;23;20016;-81
2022/11/03 07:10:47;;;;;;;14.45;9.85;;;;;;;9.72;70.88;96683.81;6216435;23;20043;-81
2022/11/03 07:13:21;;;;;;;17.52;11.13;;;;;;;9.73;70.88;96685.47;6216046;23;20017;-81
2022/11/03 07:15:50;;;;;;;14.68;10.60;;;;;;;9.74;70.78;96676.66;6216573;23;20020;-81
2022/11/03 07:18:22;;;;;;;17.38;11.60;;;;;;;9.72;70.55;96668.19;6215929;23;20103;-81
2022/11/03 07:20:51;;;;;;;20.63;11.45;;;;;;;9.71;70.44;96666.59;6216195;23;20021;-81
2022/11/03 07:23:22;;;;;;;17.73;11.52;;;;;;;9.70;70.61;96660.56;6216341;23;20017;-81
2022/11/03 07:25:53;;;;;;;18.60;12.27;;;;;;;9.69;70.42;96664.16;6216194;23;20468;-81
2022/11/03 07:28:26;;;;;;;18.33;11.10;;;;;;;9.70;70.57;96660.56;6216250;23;20325;-81
2022/11/03 07:30:54;;;;;;;17.58;11.25;;;;;;;9.72;70.46;96659.59;6216164;23;20452;-81
2022/11/03 07:33:25;;;;;;;17.00;11.38;;;;;;;9.72;70.49;96663.00;6215870;23;20024;-81
2022/11/03 07:35:56;;;;;;;15.15;10.65;;;;;;;9.75;70.28;96657.44;6216514;23;20025;-81
2022/11/03 07:38:46;;;;;;;14.35;10.45;;;;;;;9.79;69.95;96663.09;6215263;23;20059;-81
2022/11/03 07:41:18;;;;;;;14.27;9.95;;;;;;;9.87;70.22;96663.84;6219750;23;20071;-81
2022/11/03 07:43:53;;;;;;;15.10;10.20;;;;;;;9.95;69.77;96656.94;6230572;23;20024;-81
2022/11/03 07:46:22;;;;;;;20.80;11.15;;;;;;;10.05;69.53;96652.28;6219817;23;20380;-81
2022/11/03 07:48:53;;;;;;;27.27;12.48;;;;;;;10.19;69.55;96661.94;6215217;23;20461;-81
2022/11/03 07:51:23;;;;;;;24.50;12.57;;;;;;;10.35;69.12;96662.81;6216479;23;20024;-81
2022/11/03 07:53:52;;;;;;;19.33;11.30;;;;;;;10.41;68.54;96664.72;6216379;23;20020;-81
2022/11/03 07:56:21;;;;;;;13.73;10.10;;;;;;;10.45;68.51;96664.16;6216058;23;20025;-81
2022/11/03 07:58:54;;;;;;;16.25;11.48;;;;;;;10.43;68.38;96655.72;6215632;23;20020;-81
2022/11/03 08:01:30;;;;;;;13.77;10.07;;;;;;;10.48;68.87;96673.44;6216439;23;20024;-81
2022/11/03 08:04:03;;;;;;;13.57;9.93;;;;;;;10.53;68.20;96660.66;6215859;23;20027;-81
2022/11/03 08:06:30;;;;;;;;;;;;;;;10.55;68.22;96657.88;6216756;23;20107;-81
2022/11/03 08:08:58;;;;;;;13.52;10.80;;;;;;;10.47;68.26;96654.38;6215370;23;19916;-81
2022/11/03 08:11:25;;;;;;;15.82;11.15;;;;;;;10.43;68.54;96644.44;6215545;23;20024;-80
2022/11/03 08:13:57;;;;;;;13.77;10.45;;;;;;;10.42;68.54;96641.03;6216032;23;20020;-81
2022/11/03 08:16:25;;;;;;;19.58;10.68;;;;;;;10.41;68.54;96631.63;6214932;23;20027;-81
2022/11/03 08:18:53;;;;;;;16.30;10.77;;;;;;;10.40;68.56;96623.97;6215337;23;20023;-81
2022/11/03 08:21:20;;;;;;;15.98;10.88;;;;;;;10.40;68.63;96616.94;6215373;23;20215;-81
2022/11/03 08:23:48;;;;;;;14.13;10.77;;;;;;;10.42;68.62;96620.19;6215736;23;20017;-81
2022/11/03 08:26:16;;;;;;;23.75;12.05;;;;;;;10.46;68.55;96603.19;6215777;23;20017;-81
2022/11/03 08:28:43;;;;;;;16.40;10.23;;;;;;;10.53;68.64;96598.06;6214941;23;20074;-81
2022/11/03 08:31:12;;;;;;;13.50;10.00;;;;;;;10.61;68.11;96597.97;6215725;23;20028;-81
2022/11/03 08:33:40;;;;;;;17.35;10.13;;;;;;;10.66;67.88;96592.19;6215827;23;20256;-81
2022/11/03 08:36:08;;;;;;;15.20;9.90;;;;;;;10.70;67.50;96589.03;6215427;23;20361;-81
2022/11/03 08:38:37;;;;;;;13.02;9.38;;;;;;;10.75;67.52;96590.28;6215261;23;20021;-81
2022/11/03 08:41:05;;;;;;;12.65;8.63;;;;;;;10.79;67.10;96575.91;6215667;23;20023;-81
2022/11/03 08:43:32;;;;;;;10.02;7.95;;;;;;;10.87;66.78;96575.78;6215701;23;20016;-81
2022/11/03 08:46:00;;;;;;;11.13;7.57;;;;;;;10.99;66.37;96566.47;6215680;23;20024;-81
2022/11/03 08:48:40;;;;;;;9.30;7.05;;;;;;;11.11;65.87;96562.38;6221165;22;20017;-81
2022/11/03 08:51:09;;;;;;;9.80;8.02;;;;;;;11.28;65.69;96555.13;6227352;23;20023;-81
2022/11/03 08:53:37;;;;;;;8.68;6.63;;;;;;;11.60;64.63;96557.41;6227180;23;20021;-81
2022/11/03 08:56:06;;;;;;;10.23;6.57;;;;;;;12.00;63.48;96552.47;6226269;23;20023;-81
2022/11/03 08:58:39;;;;;;;12.48;6.70;;;;;;;12.23;62.46;96547.78;6230616;23;20326;-81
2022/11/03 09:01:07;;;;;;;7.32;5.93;;;;;;;12.30;62.16;96538.16;6230394;23;20456;-80
2022/11/03 09:03:35;;;;;;;10.43;5.78;;;;;;;12.39;61.88;96530.16;6231404;23;20362;-81
2022/11/03 09:06:04;;;;;;;8.85;6.00;;;;;;;12.52;61.50;96538.06;6229454;23;20347;-81
2022/11/03 09:08:32;;;;;;;11.48;6.03;;;;;;;12.75;60.97;96533.31;6230165;23;20027;-81
2022/11/03 09:11:19;;;;;;;8.32;5.82;;;;;;;13.01;60.01;96517.84;6230202;23;20020;-81
2022/11/03 09:13:47;;;;;;;8.27;5.72;;;;;;;13.15;60.00;96515.06;6239251;23;20023;-81
2022/11/03 09:16:15;;;;;;;10.80;7.15;;;;;;;13.29;59.42;96509.88;6234670;23;20372;-81
2022/11/03 09:18:44;;;;;;;7.32;5.97;;;;;;;13.51;58.92;96505.22;6233072;23;20488;-81
2022/11/03 09:21:13;;;;;;;8.20;5.72;;;;;;;13.88;58.00;96508.22;6236304;23;20024;-81
2022/11/03 09:23:41;;;;;;;7.88;6.30;;;;;;;14.31;56.68;96515.59;6234716;23;20020;-81
2022/11/03 09:26:09;;;;;;;8.80;6.00;;;;;;;14.77;55.20;96519.84;6242890;22;20040;-80
2022/11/03 09:28:36;;;;;;;11.55;5.78;;;;;;;15.29;54.08;96512.66;6242634;22;20000;-80
2022/11/03 09:31:04;;;;;;;10.20;6.47;;;;;;;15.90;52.51;96511.16;6241552;22;20052;-81
2022/11/03 09:33:32;;;;;;;15.63;6.32;;;;;;;16.72;50.20;96497.66;6239793;23;20087;-81
2022/11/03 09:36:00;;;;;;;14.43;5.78;;;;;;;17.38;48.41;96495.13;6241693;22;20448;-80
2022/11/03 09:38:29;;;;;;;9.25;4.93;;;;;;;17.94;46.80;96504.38;6239889;23;20017;-81
2022/11/03 09:40:57;;;;;;;9.55;5.80;;;;;;;18.36;45.65;96509.47;6242565;22;20011;-81
2022/11/03 09:43:27;;;;;;;9.63;5.82;;;;;;;18.36;45.55;96506.81;6243018;22;20088;-81
2022/11/03 09:45:54;;;;;;;6.78;5.03;;;;;;;18.53;45.44;96507.69;6243514;22;20009;-80
2022/11/03 09:48:22;;;;;;;10.65;4.82;;;;;;;18.87;44.28;96513.13;6243102;22;20028;-80
2022/11/03 09:50:53;;;;;;;7.38;4.13;;;;;;;19.23;43.40;96515.59;6243598;22;20061;-80
2022/11/03 09:53:21;;;;;;;6.75;4.68;;;;;;;19.75;42.39;96513.56;6243514;22;20012;-80
2022/11/03 09:55:50;;;;;;;4.85;4.38;;;;;;;20.35;40.76;96516.47;6243501;22;20015;-80
2022/11/03 09:58:18;;;;;;;6.10;4.35;;;;;;;20.98;39.89;96517.75;6243162;22;20040;-80
2022/11/03 10:00:46;;;;;;;7.07;3.88;;;;;;;21.64;38.86;96522.06;6243565;22;20036;-79
2022/11/03 10:03:16;;;;;;;5.88;4.22;;;;;;;22.14;37.18;96525.31;6243707;22;20048;-80
2022/11/03 10:05:45;;;;;;;5.32;3.92;;;;;;;22.18;36.56;96521.88;6243517;22;20004;-80
2022/11/03 10:08:20;;;;;;;6.53;4.18;;;;;;;21.78;37.05;96522.44;6243436;22;20011;-80
2022/11/03 10:10:51;;;;;;;5.68;3.90;;;;;;;21.38;37.88;96511.25;6243563;22;20080;-80
2022/11/03 10:13:25;;;;;;;4.10;3.70;;;;;;;20.99;38.55;96511.41;6243563;22;20009;-80
2022/11/03 10:15:53;;;;;;;4.63;4.05;;;;;;;20.63;39.60;96507.56;6243610;22;20031;-80
2022/11/03 10:18:21;;;;;;;4.47;3.92;;;;;;;20.05;40.44;96491.22;6243205;22;20012;-80
2022/11/03 10:20:49;;;;;;;4.97;3.90;;;;;;;19.61;41.54;96506.94;6243695;22;20008;-80
2022/11/03 10:23:17;;;;;;;4.82;3.80;;;;;;;19.35;41.97;96503.91;6243908;22;20009;-80
2022/11/03 10:25:45;;;;;;;4.78;3.95;;;;;;;18.99;42.82;96496.41;6243991;22;20024;-81
2022/11/03 10:28:17;;;;;;;6.70;3.83;;;;;;;18.69;42.93;96484.22;6243405;22;20004;-81
2022/11/03 10:30:54;;;;;;;4.10;3.72;;;;;;;18.42;43.75;96484.75;6243633;22;20025;-81
2022/11/03 10:33:40;;;;;;;4.53;4.13;;;;;;;18.35;44.17;96476.19;6243841;22;20032;-80
2022/11/03 10:36:22;;;;;;;6.28;3.97;;;;;;;18.36;44.20;96469.06;6243730;22;20012;-80
2022/11/03 10:38:50;;;;;;;5.28;4.32;;;;;;;18.53;44.56;96467.28;6243656;22;20016;-80
2022/11/03 10:41:20;;;;;;;6.32;3.80;;;;;;;18.68;43.79;96451.72;6243585;22;20005;-80
2022/11/03 10:44:03;;;;;;;5.90;4.30;;;;;;;18.77;43.54;96460.06;6244044;22;20024;-80
2022/11/03 10:46:32;;;;;;;6.20;4.07;;;;;;;18.97;43.27;96454.34;6243821;22;20031;-80
2022/11/03 10:49:20;;;;;;;5.30;4.40;;;;;;;19.34;42.63;96454.69;6243542;22;20012;-80
2022/11/03 10:51:50;;;;;;;4.97;4.03;;;;;;;19.48;42.19;96454.34;6243829;22;20013;-80
2022/11/03 10:54:22;;;;;;;4.32;3.92;;;;;;;19.42;42.25;96444.78;6243695;22;20015;-81
2022/11/03 10:56:51;;;;;;;5.65;4.25;;;;;;;19.20;42.75;96447.31;6243726;22;20021;-80
2022/11/03 10:59:24;;;;;;;8.02;4.20;;;;;;;18.97;43.25;96450.91;6243908;22;20012;-80
2022/11/03 11:01:52;;;;;;;4.85;4.40;;;;;;;18.82;43.42;96436.38;6243942;22;20007;-80
2022/11/03 11:04:21;;;;;;;5.53;4.05;;;;;;;18.69;44.09;96436.66;6244040;22;20035;-81
2022/11/03 11:06:49;;;;;;;5.07;4.45;;;;;;;18.51;44.05;96435.00;6243933;22;20025;-81
2022/11/03 11:09:22;;;;;;;5.18;4.65;;;;;;;18.12;44.72;96437.44;6243664;22;20072;-81
2022/11/03 11:12:01;;;;;;;6.30;5.32;;;;;;;17.69;45.79;96439.44;6243918;22;20009;-81
2022/11/03 11:14:39;;;;;;;5.97;4.50;;;;;;;17.32;46.71;96428.31;6243653;22;20008;-81
2022/11/03 11:17:41;;;;;;;7.03;4.55;;;;;;;17.08;47.31;96415.09;6244084;22;20036;-80
2022/11/03 11:20:42;;;;;;;5.55;4.32;;;;;;;16.79;47.78;96418.56;6243729;22;20016;-81
2022/11/03 11:23:47;;;;;;;5.93;4.63;;;;;;;16.54;48.83;96408.97;6243823;22;20039;-80
2022/11/03 11:26:34;;;;;;;5.68;5.07;;;;;;;16.28;49.42;96391.72;6243708;22;20020;-80
2022/11/03 11:29:43;;;;;;;5.93;5.18;;;;;;;15.97;50.17;96385.63;6243514;22;20020;-81
2022/11/03 11:32:51;;;;;;;5.60;5.00;;;;;;;15.67;51.03;96375.00;6243716;22;20035;-80
2022/11/03 11:35:58;;;;;;;9.27;6.13;;;;;;;15.39;51.79;96372.88;6243494;22;20005;-80
2022/11/03 11:39:01;;;;;;;6.63;5.05;;;;;;;15.19;52.48;96368.59;6242622;22;20093;-81
2022/11/03 11:42:12;;;;;;;9.07;5.57;;;;;;;15.13;52.77;96366.88;6123537;23;20014;-80
2022/11/03 11:44:48;;;;;;;5.20;4.28;;;;;;;15.20;52.95;96369.44;6123551;23;20034;-81
2022/11/03 11:47:25;;;;;;;5.88;4.70;;;;;;;15.19;52.65;96362.56;6221179;22;20024;-80
2022/11/03 11:50:17;;;;;;;5.65;4.85;;;;;;;15.12;52.86;96349.47;6243505;22;20013;-81
2022/11/03 11:52:48;;;;;;;8.00;5.40;;;;;;;15.04;52.76;96344.50;6244608;22;20015;-81
2022/11/03 11:55:20;;;;;;;7.35;5.47;;;;;;;14.92;53.35;96343.63;6245377;22;20009;-80
2022/11/03 11:57:48;;;;;;;7.00;5.17;;;;;;;14.78;53.72;96351.59;6245153;22;20013;-81
2022/11/03 12:00:21;;;;;;;6.18;4.93;;;;;;;14.66;54.09;96350.69;6245144;22;20241;-80
2022/11/03 12:02:49;;;;;;;8.43;4.95;;;;;;;14.55;54.25;96341.66;6245254;22;20029;-80
2022/11/03 12:05:22;;;;;;;7.05;5.45;;;;;;;14.46;54.66;96340.28;6245014;22;20044;-80
2022/11/03 12:07:50;;;;;;;5.65;4.80;;;;;;;14.38;54.85;96340.53;6244968;22;20011;-80
2022/11/03 12:10:25;;;;;;;6.18;4.93;;;;;;;14.34;55.08;96332.31;6245107;22;20012;-80
2022/11/03 12:12:53;;;;;;;5.63;5.13;;;;;;;14.30;55.14;96331.13;6245166;22;20008;-81
2022/11/03 12:15:50;;;;;;;6.15;4.85;;;;;;;14.22;55.57;96315.63;6244989;22;20005;-81
2022/11/03 12:18:32;;;;;;;6.43;5.00;;;;;;;14.12;55.84;96304.78;6244875;22;20076;-80
2022/11/03 12:21:08;;;;;;;7.85;6.40;;;;;;;14.00;55.98;96296.78;6244907;22;20050;-80
2022/11/03 12:23:41;;;;;;;5.95;5.35;;;;;;;13.90;56.68;96286.75;6245030;22;20012;-80
2022/11/03 12:26:17;;;;;;;6.43;5.07;;;;;;;13.81;56.83;96288.00;6244997;22;20197;-80
2022/11/03 12:28:45;;;;;;;7.32;5.65;;;;;;;13.74;56.80;96289.88;6244734;22;20008;-80
2022/11/03 12:31:13;;;;;;;7.85;6.10;;;;;;;13.64;57.18;96286.88;6244934;22;20076;-80
2022/11/03 12:33:41;;;;;;;7.82;5.95;;;;;;;13.54;57.44;96277.66;6244764;22;20008;-81
2022/11/03 12:36:09;;;;;;;6.18;5.57;;;;;;;13.45;57.74;96285.97;6244539;22;20008;-81
2022/11/03 12:38:36;;;;;;;6.82;6.13;;;;;;;13.36;58.18;96282.78;6244587;22;20028;-80
2022/11/03 12:43:49;;;;;;;7.30;6.60;;;;;;;13.16;58.81;96275.75;6244799;22;20031;-81
2022/11/03 12:46:17;;;;;;;8.93;6.55;;;;;;;13.13;58.87;96270.91;6244531;22;20261;-80
2022/11/03 12:48:46;;;;;;;6.72;5.95;;;;;;;13.10;59.07;96268.72;6244175;22;20052;-80
2022/11/03 12:51:15;;;;;;;7.88;7.07;;;;;;;13.08;59.21;96257.63;6244644;22;20023;-80
2022/11/03 12:53:43;;;;;;;6.93;6.25;;;;;;;13.03;59.40;96254.84;6244310;22;20017;-80
2022/11/03 12:56:12;;;;;;;11.35;6.82;;;;;;;12.94;59.73;96263.88;6244274;22;20016;-80
2022/11/03 12:58:40;;;;;;;9.45;7.13;;;;;;;12.84;60.06;96250.44;6243996;22;20036;-80
2022/11/03 13:01:09;;;;;;;7.50;6.35;;;;;;;12.76;60.36;96238.34;6244626;22;20043;-80
2022/11/03 13:03:37;;;;;;;8.60;6.78;;;;;;;12.73;60.55;96238.78;6244040;22;20027;-80
2022/11/03 13:06:08;;;;;;;8.07;6.70;;;;;;;12.68;60.79;96225.47;6244176;22;20064;-80
2022/11/03 13:08:37;;;;;;;7.72;6.47;;;;;;;12.61;61.00;96215.03;6243927;22;20027;-80
2022/11/03 13:12:29;;;;;;;10.48;7.85;;;;;;;12.54;61.29;96215.03;6244156;22;20004;-80
2022/11/03 13:13:53;;;;;;;11.73;8.35;;;;;;;12.49;61.33;96203.59;6243998;22;20017;-80
2022/11/03 13:16:22;;;;;;;9.07;7.53;;;;;;;12.42;61.75;96208.00;6243924;22;20035;-80
2022/11/03 13:18:49;;;;;;;7.80;7.00;;;;;;;12.36;61.96;96197.34;6243555;22;20022;-81
2022/11/03 13:21:17;;;;;;;8.73;7.80;;;;;;;12.30;62.14;96190.31;6244072;22;20020;-79
2022/11/03 13:23:45;;;;;;;9.50;6.93;;;;;;;12.24;62.28;96185.09;6243848;22;20008;-80
2022/11/03 13:26:13;;;;;;;9.20;6.53;;;;;;;12.18;62.60;96176.25;6243961;22;20056;-80
2022/11/03 13:28:41;;;;;;;8.68;7.28;;;;;;;12.18;62.79;96186.72;6243626;22;20072;-80
2022/11/03 13:31:09;;;;;;;9.18;6.72;;;;;;;12.16;62.97;96171.22;6243737;22;20031;-81
2022/11/03 13:33:38;;;;;;;8.82;7.00;;;;;;;12.15;63.10;96158.34;6243924;22;20076;-79
2022/11/03 13:36:06;;;;;;;8.48;6.47;;;;;;;12.14;62.90;96151.50;6243860;22;20008;-80
2022/11/03 13:38:34;;;;;;;8.93;6.72;;;;;;;12.11;62.90;96154.50;6243380;22;20028;-80
2022/11/03 13:41:02;;;;;;;9.50;7.47;;;;;;;12.08;63.06;96139.25;6243777;22;20064;-81
2022/11/03 13:43:35;;;;;;;7.18;6.47;;;;;;;12.08;63.32;96147.09;6243947;22;20009;-80
2022/11/03 13:46:03;;;;;;;8.60;7.00;;;;;;;12.11;63.09;96141.44;6243782;22;20024;-80
2022/11/03 13:48:32;;;;;;;9.25;7.63;;;;;;;12.13;63.05;96140.25;6243341;22;20005;-79
2022/11/03 13:51:21;;;;;;;8.40;6.45;;;;;;;12.16;63.08;96141.66;6243616;22;20012;-80
2022/11/03 13:53:49;;;;;;;7.70;6.75;;;;;;;12.14;63.12;96134.00;6243550;22;20032;-80
2022/11/03 13:56:36;;;;;;;9.45;7.55;;;;;;;12.11;63.07;96120.53;6243417;22;20029;-80
2022/11/03 13:59:24;;;;;;;7.55;6.75;;;;;;;12.04;63.35;96119.75;6243235;22;20027;-80
2022/11/03 14:01:53;;;;;;;9.13;7.72;;;;;;;12.01;63.31;96114.94;6243500;22;20031;-80
2022/11/03 14:04:40;;;;;;;8.23;7.15;;;;;;;11.98;63.65;96123.16;6243418;22;20039;-81
2022/11/03 14:07:11;;;;;;;12.07;7.70;;;;;;;11.95;63.70;96122.56;6243447;22;20028;-80
2022/11/03 14:09:39;;;;;;;10.35;8.23;;;;;;;11.89;63.67;96114.72;6243171;22;20052;-80
2022/11/03 14:14:52;;;;;;;9.85;7.35;;;;;;;11.75;64.02;96106.06;6242919;22;20008;-80
2022/11/03 14:17:20;;;;;;;13.55;8.18;;;;;;;11.66;64.38;96107.25;6243097;22;20016;-81
2022/11/03 14:19:47;;;;;;;9.63;8.15;;;;;;;11.58;64.52;96094.38;6242923;22;20052;-81
2022/11/03 14:22:21;;;;;;;10.45;8.18;;;;;;;11.47;65.11;96109.63;6243392;22;20012;-81
2022/11/03 14:24:49;;;;;;;9.02;8.05;;;;;;;11.38;65.11;96097.78;6243239;22;20060;-80
2022/11/03 14:27:18;;;;;;;11.27;8.65;;;;;;;11.29;65.50;96091.94;6242342;22;20294;-80
2022/11/03 14:29:48;;;;;;;12.15;8.73;;;;;;;11.23;65.74;96100.56;6242309;22;20004;-81
2022/11/03 14:32:16;;;;;;;12.63;9.15;;;;;;;11.21;65.99;96091.31;6242393;22;20004;-81
2022/11/03 14:34:44;;;;;;;13.32;10.20;;;;;;;11.15;66.07;96090.31;6242765;22;20072;-80
2022/11/03 14:37:12;;;;;;;12.43;9.65;;;;;;;11.09;66.17;96084.06;6241621;22;20016;-81
2022/11/03 14:39:42;;;;;;;15.25;10.80;;;;;;;11.05;66.43;96087.28;6242481;22;20012;-81
2022/11/03 14:42:13;;;;;;;13.30;10.63;;;;;;;11.03;66.54;96081.44;6242798;22;20013;-81
2022/11/03 14:44:43;;;;;;;13.57;11.02;;;;;;;11.00;66.33;96074.00;6241839;22;20017;-81
2022/11/03 14:47:12;;;;;;;17.45;11.95;;;;;;;11.00;66.54;96069.59;6242623;22;20009;-81
2022/11/03 14:49:40;;;;;;;14.75;11.82;;;;;;;11.03;66.76;96071.81;6220207;22;20031;-76
2022/11/03 14:52:08;;;;;;;15.68;12.35;;;;;;;11.05;66.74;96069.81;6213988;23;20016;-75
2022/11/03 14:54:36;;;;;;;15.88;11.82;;;;;;;11.07;66.64;96073.03;6214265;23;20025;-77
2022/11/03 14:57:05;;;;;;;16.45;12.05;;;;;;;11.04;66.65;96055.16;6214339;23;20017;-77
2022/11/03 14:59:33;;;;;;;17.90;12.40;;;;;;;11.05;66.74;96054.16;6213579;23;20135;-75
2022/11/03 15:02:02;;;;;;;15.23;12.15;;;;;;;11.04;66.66;96033.47;6214497;23;20021;-76